Time;durP1;ratioP1;P1;durP2;ratioP2;P2;SDS_P1;SDS_P2;PMS_P1;PMS_P2;Temp;Humidity;BMP_temperature;BMP_pressure;BME280_temperature;BME280_humidity;BME280_pressure;Samples;Min_cycle;Max_cycle;Signal;HPM_P1;HPM_P2
2022/09/21 04:01:35;;;;;;;6.53;3.37;;;5.50;96.30;;;;;;5425611;23;20504;-79
2022/09/21 04:04:00;;;;;;;8.67;3.93;;;5.60;96.30;;;;;;4981711;28;20493;-78
2022/09/21 04:06:26;;;;;;;5.37;3.67;;;5.50;96.30;;;;;;4973910;28;20455;-79
2022/09/21 04:08:53;;;;;;;7.20;3.33;;;5.50;96.30;;;;;;4953720;28;20261;-79
2022/09/21 04:11:21;;;;;;;5.20;3.60;;;5.40;96.30;;;;;;4943822;29;20203;-79
2022/09/21 04:13:56;;;;;;;5.90;3.40;;;5.40;96.30;;;;;;4935189;29;20451;-78
2022/09/21 04:16:25;;;;;;;4.60;3.90;;;5.40;96.30;;;;;;4937987;29;20406;-79
2022/09/21 04:18:51;;;;;;;4.37;3.73;;;5.40;96.30;;;;;;4936708;29;20502;-80
2022/09/21 09:12:33;;;;;;;4.43;3.50;;;14.40;96.30;;;;;;4971668;23;20517;-78
2022/09/21 09:15:28;;;;;;;5.50;3.50;;;14.00;96.30;;;;;;4956933;29;20872;-78
2022/09/21 09:18:03;;;;;;;7.83;3.47;;;13.50;96.30;;;;;;4957952;28;20410;-77
2022/09/21 09:20:36;;;;;;;5.70;3.90;;;13.90;96.30;;;;;;4958253;28;20992;-76
2022/09/21 09:23:08;;;;;;;6.30;4.67;;;14.20;96.30;;;;;;4958981;28;20442;-78
2022/09/21 09:25:40;;;;;;;5.70;4.30;;;14.30;96.30;;;;;;4958401;28;20418;-77
2022/09/21 09:28:24;;;;;;;5.60;3.60;;;15.20;96.30;;;;;;4957733;29;20435;-78
2022/09/21 09:31:02;;;;;;;6.30;3.30;;;16.20;96.30;;;;;;4958291;28;20430;-77
2022/09/21 09:33:49;;;;;;;6.00;3.20;;;16.40;96.30;;;;;;4957063;29;20771;-77
2022/09/21 09:36:16;;;;;;;5.93;3.03;;;15.70;96.30;;;;;;4957358;28;20425;-76
2022/09/21 09:38:52;;;;;;;4.73;3.37;;;14.70;96.30;;;;;;4954933;28;20914;-76
2022/09/21 09:41:45;;;;;;;9.13;2.87;;;16.20;96.30;;;;;;4964671;28;20440;-77
2022/09/21 09:44:35;;;;;;;5.23;2.87;;;17.60;96.30;;;;;;4976206;28;20413;-77
2022/09/21 09:47:07;;;;;;;6.70;2.40;;;18.40;96.30;;;;;;4990821;28;21259;-76
2022/09/21 09:49:47;;;;;;;5.37;2.10;;;17.40;96.30;;;;;;4975139;28;20409;-76
2022/09/21 09:52:15;;;;;;;5.83;2.70;;;17.60;96.30;;;;;;4990310;28;20437;-76
2022/09/21 09:54:41;;;;;;;4.90;1.90;;;18.40;96.30;;;;;;4975367;28;20449;-76
2022/09/21 09:57:08;;;;;;;2.40;2.07;;;19.00;96.30;;;;;;4975368;28;20413;-78
2022/09/21 10:00:00;;;;;;;4.03;2.03;;;18.10;96.30;;;;;;4975253;28;20197;-76
2022/09/21 10:02:27;;;;;;;2.90;1.90;;;18.20;96.30;;;;;;4975056;28;20448;-76
2022/09/21 10:05:04;;;;;;;5.90;2.60;;;17.60;96.30;;;;;;4975177;28;20784;-77
2022/09/21 10:07:39;;;;;;;2.33;1.73;;;17.50;96.30;;;;;;4990214;28;20433;-76
2022/09/21 10:10:31;;;;;;;4.80;2.50;;;16.50;96.30;;;;;;4962281;28;20419;-76
2022/09/21 10:13:31;;;;;;;7.80;2.40;;;16.10;96.30;;;;;;4956017;28;20418;-76
2022/09/21 10:16:32;;;;;;;2.93;2.20;;;16.40;96.30;;;;;;4956661;29;20414;-78
2022/09/21 10:19:01;;;;;;;4.10;1.37;;;17.40;96.30;;;;;;4955476;28;20445;-77
2022/09/21 10:26:46;;;;;;;3.60;1.83;;;16.10;96.30;;;;;;5469961;23;20497;-75
2022/09/21 10:29:29;;;;;;;7.17;2.50;;;15.30;96.30;;;;;;4955458;28;20468;-80
2022/09/21 10:31:57;;;;;;;5.90;1.17;;;14.40;96.30;;;;;;4955566;28;20510;-76
2022/09/21 10:34:26;;;;;;;6.57;1.33;;;14.80;96.30;;;;;;4955367;29;20565;-76
2022/09/21 10:36:54;;;;;;;5.93;2.50;;;15.40;96.30;;;;;;4955497;28;20458;-76
2022/09/21 10:39:24;;;;;;;5.70;1.50;;;15.80;96.30;;;;;;4954818;28;20926;-78
2022/09/21 10:42:03;;;;;;;6.17;1.93;;;16.80;96.30;;;;;;4967735;28;20437;-77
2022/09/21 10:44:39;;;;;;;4.17;1.77;;;17.00;96.30;;;;;;4974593;28;20463;-77
2022/09/21 10:47:34;;;;;;;4.77;1.23;;;17.00;96.30;;;;;;4974531;28;20409;-77
2022/09/21 10:50:03;;;;;;;1.40;1.23;;;16.80;96.30;;;;;;4973817;28;20468;-77
2022/09/21 10:52:34;;;;;;;3.40;1.20;;;16.20;96.30;;;;;;4974305;28;20441;-77
2022/09/21 10:55:00;;;;;;;3.53;1.00;;;16.20;96.30;;;;;;4974437;28;20461;-76
2022/09/21 10:57:28;;;;;;;2.67;1.07;;;16.70;96.30;;;;;;4974156;28;20416;-77
2022/09/21 10:59:56;;;;;;;2.30;1.10;;;17.40;96.30;;;;;;4974026;28;20173;-77
2022/09/21 11:02:31;;;;;;;4.30;1.17;;;18.00;96.30;;;;;;4973986;28;20433;-77
2022/09/21 11:05:26;;;;;;;4.37;1.17;;;17.80;96.30;;;;;;4974245;28;20409;-78
2022/09/21 11:07:59;;;;;;;4.03;1.00;;;17.40;96.30;;;;;;4974287;28;20977;-78
2022/09/21 11:10:52;;;;;;;2.47;1.30;;;16.50;96.30;;;;;;4958746;28;20419;-78
2022/09/21 11:13:36;;;;;;;2.27;1.13;;;16.00;96.30;;;;;;4954885;28;20437;-77
2022/09/21 11:16:21;;;;;;;2.97;1.17;;;15.50;96.30;;;;;;4954741;28;20430;-77
2022/09/21 11:19:09;;;;;;;3.47;1.30;;;15.70;96.30;;;;;;4955237;28;20399;-80
2022/09/21 11:21:46;;;;;;;2.60;1.00;;;16.10;96.30;;;;;;4955630;28;20434;-80
2022/09/21 11:24:36;;;;;;;6.23;1.20;;;15.90;96.30;;;;;;4955657;28;21094;-80
2022/09/21 11:27:09;;;;;;;2.00;1.20;;;15.50;96.30;;;;;;4955816;29;20858;-79
2022/09/21 11:29:52;;;;;;;3.73;1.33;;;15.20;96.30;;;;;;4956045;28;20422;-79
2022/09/21 11:32:41;;;;;;;1.87;1.00;;;14.80;96.30;;;;;;4955613;28;20855;-80
2022/09/21 11:35:23;;;;;;;3.53;1.20;;;14.40;96.30;;;;;;4954976;28;20497;-81
2022/09/21 11:37:56;;;;;;;1.93;1.00;;;14.20;96.30;;;;;;4955041;28;20938;-80
2022/09/21 11:41:04;;;;;;;2.67;1.17;;;14.00;96.30;;;;;;4954780;28;20442;-79
2022/09/21 11:44:07;;;;;;;4.07;1.73;;;14.10;96.30;;;;;;4955278;28;20457;-76
2022/09/21 11:46:44;;;;;;;2.33;0.80;;;14.00;96.30;;;;;;4974535;28;20423;-78
2022/09/21 11:49:28;;;;;;;5.87;1.00;;;13.80;96.30;;;;;;4974407;28;20397;-76
2022/09/21 11:52:05;;;;;;;3.97;1.07;;;13.80;96.30;;;;;;4974059;28;20441;-76
2022/09/21 11:54:50;;;;;;;2.97;1.10;;;13.70;96.30;;;;;;4974028;28;20484;-77
2022/09/21 11:57:27;;;;;;;9.40;0.90;;;13.80;96.30;;;;;;4974261;28;20397;-76
2022/09/21 12:00:05;;;;;;;2.60;0.70;;;13.90;96.30;;;;;;4973887;28;20406;-77
2022/09/21 12:03:12;;;;;;;3.00;1.20;;;14.60;96.30;;;;;;4972922;28;20528;-76
2022/09/21 12:05:51;;;;;;;3.57;0.90;;;15.70;96.30;;;;;;4973300;28;20775;-77
2022/09/21 12:08:36;;;;;;;2.10;1.17;;;16.70;96.30;;;;;;4975030;28;20414;-78
2022/09/21 12:11:25;;;;;;;5.27;1.20;;;17.00;96.30;;;;;;4936092;29;21007;-80
2022/09/21 12:14:03;;;;;;;3.00;0.63;;;17.00;96.30;;;;;;4936575;29;20836;-77
2022/09/21 12:16:51;;;;;;;2.23;1.17;;;17.20;96.30;;;;;;4936154;29;20415;-76
2022/09/21 12:20:00;;;;;;;2.70;0.90;;;16.30;96.30;;;;;;4935577;29;20877;-78
2022/09/21 12:22:31;;;;;;;2.60;0.77;;;15.40;96.30;;;;;;4909830;29;20447;-77
2022/09/21 12:25:03;;;;;;;3.70;1.10;;;14.40;96.30;;;;;;4935438;29;20955;-77
2022/09/21 12:27:37;;;;;;;2.43;0.80;;;14.10;96.30;;;;;;4935372;29;20885;-77
2022/09/21 12:30:12;;;;;;;1.20;0.60;;;13.90;96.30;;;;;;4935384;29;20567;-77
2022/09/21 12:32:59;;;;;;;1.63;0.60;;;13.80;96.30;;;;;;4935232;29;20406;-77
2022/09/21 12:35:45;;;;;;;1.30;0.77;;;13.70;96.30;;;;;;4935434;29;20467;-78
2022/09/21 12:38:34;;;;;;;3.10;0.73;;;14.90;96.30;;;;;;4935888;29;20396;-77
2022/09/21 12:41:33;;;;;;;1.80;1.10;;;16.00;96.30;;;;;;4919266;28;20573;-80
2022/09/21 12:44:08;;;;;;;2.17;1.00;;;17.00;96.30;;;;;;4973828;28;20743;-79
2022/09/21 12:46:40;;;;;;;3.00;0.80;;;17.40;96.30;;;;;;4973626;28;20397;-76
2022/09/21 12:49:24;;;;;;;6.77;0.90;;;17.60;96.30;;;;;;4974244;28;20493;-77
2022/09/21 12:51:54;;;;;;;1.50;0.80;;;17.60;96.30;;;;;;4973819;28;20917;-77
2022/09/21 12:54:58;;;;;;;5.03;0.90;;;16.90;96.30;;;;;;4973599;28;20464;-77
2022/09/21 12:58:13;;;;;;;3.63;0.67;;;15.90;96.30;;;;;;4973682;28;20429;-77
2022/09/21 13:01:12;;;;;;;1.20;0.90;;;15.20;96.30;;;;;;4973578;28;20429;-77
2022/09/21 13:03:58;;;;;;;1.10;0.70;;;15.80;96.30;;;;;;4973487;28;20801;-78
2022/09/21 13:06:52;;;;;;;0.90;0.60;;;16.60;96.30;;;;;;4973594;28;20440;-77
2022/09/21 13:09:19;;;;;;;2.03;0.80;;;17.00;96.30;;;;;;4965910;28;20602;-78
2022/09/21 13:12:24;;;;;;;2.00;1.03;;;17.30;96.30;;;;;;4954484;28;21061;-77
2022/09/21 13:14:56;;;;;;;1.67;0.80;;;17.60;96.30;;;;;;4958066;28;20823;-78
2022/09/21 13:17:27;;;;;;;1.63;0.70;;;17.90;96.30;;;;;;4957283;28;20395;-78
2022/09/21 13:20:04;;;;;;;3.23;1.00;;;17.70;96.30;;;;;;4958579;28;20406;-77
2022/09/21 13:22:32;;;;;;;2.60;0.80;;;17.80;96.30;;;;;;4959092;28;20437;-77
2022/09/21 13:25:08;;;;;;;1.63;0.70;;;18.50;96.30;;;;;;4959105;28;20981;-79
2022/09/21 13:27:59;;;;;;;1.00;0.80;;;19.20;96.30;;;;;;4958109;28;20564;-77
2022/09/21 13:30:41;;;;;;;2.03;0.87;;;19.30;96.30;;;;;;4958135;28;20483;-77
2022/09/21 13:33:18;;;;;;;5.17;0.83;;;18.20;96.30;;;;;;4958140;28;20399;-77
2022/09/21 13:35:52;;;;;;;2.10;0.90;;;17.20;96.30;;;;;;4958189;28;20512;-78
2022/09/21 13:38:39;;;;;;;4.03;1.53;;;16.60;96.30;;;;;;4958232;28;20427;-78
2022/09/21 13:41:17;;;;;;;3.23;0.90;;;15.60;96.30;;;;;;4963135;28;20448;-77
2022/09/21 13:43:54;;;;;;;2.50;0.90;;;14.80;96.30;;;;;;4975696;28;20894;-77
2022/09/21 13:46:51;;;;;;;2.03;0.97;;;14.40;96.30;;;;;;4975694;28;20417;-77
2022/09/21 13:49:49;;;;;;;4.53;0.97;;;14.30;96.30;;;;;;4967451;28;20936;-79
2022/09/21 13:52:15;;;;;;;2.67;1.03;;;14.60;96.30;;;;;;4967158;28;20437;-78
2022/09/21 13:54:44;;;;;;;4.90;1.10;;;15.30;96.30;;;;;;4975625;28;21024;-78
2022/09/21 13:57:18;;;;;;;4.50;0.83;;;16.00;96.30;;;;;;4975684;28;20642;-78
2022/09/21 13:59:46;;;;;;;2.57;1.00;;;16.40;96.30;;;;;;4975715;28;20429;-80
2022/09/21 14:02:50;;;;;;;1.10;0.87;;;16.40;96.30;;;;;;4976236;28;20456;-79
2022/09/21 14:05:23;;;;;;;1.57;0.70;;;16.30;96.30;;;;;;4934197;28;20430;-80
2022/09/21 14:07:58;;;;;;;0.90;0.60;;;16.30;96.30;;;;;;4942881;29;20907;-79
2022/09/21 14:10:26;;;;;;;2.00;0.70;;;15.90;96.30;;;;;;4956977;28;20831;-78
2022/09/21 14:12:51;;;;;;;1.23;1.00;;;15.60;96.30;;;;;;4957225;28;20442;-76
2022/09/21 14:15:18;;;;;;;3.00;0.90;;;15.00;96.30;;;;;;4957159;28;20493;-77
2022/09/21 14:17:44;;;;;;;0.90;0.60;;;14.80;96.30;;;;;;4956792;28;20167;-77
2022/09/21 14:20:30;;;;;;;3.33;1.00;;;14.50;96.30;;;;;;4956640;28;20947;-79
2022/09/21 14:23:13;;;;;;;2.27;0.63;;;14.40;96.30;;;;;;4956929;28;20403;-78
2022/09/21 14:25:54;;;;;;;2.57;0.90;;;14.30;96.30;;;;;;4956192;28;20499;-77
2022/09/21 14:28:36;;;;;;;1.20;0.60;;;14.40;96.30;;;;;;4956676;28;20769;-77
2022/09/21 14:31:13;;;;;;;2.33;0.80;;;14.40;96.30;;;;;;4956505;28;20442;-76
2022/09/21 14:33:49;;;;;;;1.20;0.60;;;14.30;96.30;;;;;;4955107;28;20804;-79
2022/09/21 14:36:20;;;;;;;0.90;0.60;;;14.20;96.30;;;;;;4956769;28;20473;-76
2022/09/21 14:38:53;;;;;;;2.60;0.97;;;14.10;96.30;;;;;;4956198;28;20407;-78
2022/09/21 14:41:22;;;;;;;1.30;0.80;;;14.30;96.30;;;;;;4964480;28;20448;-78
2022/09/21 14:43:53;;;;;;;2.50;1.00;;;14.50;96.30;;;;;;4975904;28;20436;-78
2022/09/21 14:46:31;;;;;;;1.93;0.90;;;15.00;96.30;;;;;;4975426;28;20405;-78
2022/09/21 14:49:15;;;;;;;1.73;1.00;;;15.50;96.30;;;;;;4975557;28;20493;-78
2022/09/21 14:52:02;;;;;;;4.27;1.20;;;16.00;96.30;;;;;;4975794;28;20967;-77
2022/09/21 14:54:57;;;;;;;1.40;0.80;;;16.20;96.30;;;;;;4976113;28;20492;-78
2022/09/21 14:57:36;;;;;;;2.50;1.00;;;16.40;96.30;;;;;;4974826;28;20418;-77
2022/09/21 15:00:25;;;;;;;1.40;0.93;;;16.60;96.30;;;;;;4974028;28;20835;-78
2022/09/21 15:03:29;;;;;;;1.97;0.77;;;16.70;96.30;;;;;;4969729;28;20418;-76
2022/09/21 15:10:54;;;;;;;7.03;0.90;;;16.30;96.30;;;;;;4956187;28;20425;-76
2022/09/21 15:12:08;;;;;;;2.73;0.90;;;15.70;96.30;;;;;;4953297;28;21017;-77
2022/09/21 15:14:39;;;;;;;3.03;0.90;;;15.50;96.30;;;;;;4936891;29;20810;-77
2022/09/21 15:17:49;;;;;;;2.13;0.80;;;15.30;96.30;;;;;;4936507;29;20946;-77
2022/09/21 15:20:22;;;;;;;0.97;0.70;;;15.30;96.30;;;;;;4909011;29;20919;-78
2022/09/21 15:22:47;;;;;;;1.90;0.67;;;15.20;96.30;;;;;;4937903;29;20411;-77
2022/09/21 15:25:13;;;;;;;1.67;0.80;;;15.30;96.30;;;;;;4953217;28;20933;-78
2022/09/21 15:27:45;;;;;;;0.90;0.60;;;15.20;96.30;;;;;;4954305;29;20218;-77
2022/09/21 15:30:20;;;;;;;3.23;0.63;;;15.10;96.30;;;;;;4955615;28;20494;-78
2022/09/21 15:32:50;;;;;;;1.30;0.80;;;15.10;96.30;;;;;;4955804;28;20763;-78
2022/09/21 15:35:20;;;;;;;1.40;0.80;;;15.10;96.30;;;;;;4955290;28;20938;-78
2022/09/21 15:37:46;;;;;;;3.80;0.83;;;14.90;96.30;;;;;;4955938;28;20418;-81
2022/09/21 15:40:23;;;;;;;4.73;0.93;;;14.50;96.30;;;;;;4955446;28;20497;-77
2022/09/21 15:43:02;;;;;;;3.23;1.10;;;14.00;96.30;;;;;;4936442;29;20423;-77
2022/09/21 15:45:32;;;;;;;2.20;1.20;;;14.10;96.30;;;;;;4950124;29;20465;-78
2022/09/21 15:47:58;;;;;;;2.53;1.30;;;14.30;96.30;;;;;;4955415;28;20502;-78
2022/09/21 15:50:25;;;;;;;4.13;0.90;;;14.50;96.30;;;;;;4953342;29;20457;-78
2022/09/21 15:52:55;;;;;;;1.93;0.83;;;14.70;96.30;;;;;;4954767;28;20182;-77
2022/09/21 15:55:22;;;;;;;2.47;1.63;;;14.80;96.30;;;;;;4954715;28;20446;-77
2022/09/21 15:57:55;;;;;;;2.30;1.20;;;15.20;96.30;;;;;;4954348;28;20421;-78
2022/09/21 16:00:30;;;;;;;2.53;1.20;;;15.40;96.30;;;;;;4954614;28;20821;-77
2022/09/21 16:03:06;;;;;;;1.40;0.90;;;15.20;96.30;;;;;;4954706;28;20769;-78
2022/09/21 16:06:16;;;;;;;1.90;0.93;;;14.90;96.30;;;;;;4953057;28;20418;-77
2022/09/21 16:08:42;;;;;;;2.50;1.00;;;15.00;96.30;;;;;;4934526;28;20420;-79
2022/09/21 16:11:28;;;;;;;1.83;0.80;;;15.00;96.30;;;;;;4972680;28;21209;-79
2022/09/21 16:17:28;;;;;;;2.10;1.40;;;14.40;96.30;;;;;;4953757;28;20453;-80
2022/09/21 16:19:53;;;;;;;2.83;1.47;;;14.10;96.30;;;;;;4954145;28;20411;-80
2022/09/21 16:22:24;;;;;;;1.50;1.10;;;13.70;96.30;;;;;;4954168;28;20445;-79
2022/09/21 16:24:54;;;;;;;1.97;1.10;;;13.00;96.30;;;;;;4950525;28;20270;-80
2022/09/21 16:27:23;;;;;;;3.67;0.90;;;12.90;96.30;;;;;;4944667;28;20454;-79
2022/09/21 16:29:50;;;;;;;1.63;0.90;;;12.70;96.30;;;;;;4937496;29;20432;-81
2022/09/21 16:32:22;;;;;;;4.80;1.40;;;12.60;96.30;;;;;;4942888;29;20442;-82
2022/09/21 16:34:50;;;;;;;2.70;0.90;;;12.50;96.30;;;;;;4942105;28;20468;-80
2022/09/21 16:37:27;;;;;;;3.60;1.67;;;12.30;96.30;;;;;;4953400;28;20411;-78
2022/09/21 16:39:54;;;;;;;6.43;5.50;;;12.20;96.30;;;;;;4946083;28;20423;-79
2022/09/21 16:42:21;;;;;;;6.20;4.70;;;12.00;96.30;;;;;;4967264;28;20441;-79
2022/09/21 16:44:48;;;;;;;2.73;2.00;;;11.90;96.30;;;;;;4973195;28;20425;-79
2022/09/21 16:47:24;;;;;;;11.47;10.47;;;11.80;96.30;;;;;;4973410;28;20575;-80
2022/09/21 16:49:55;;;;;;;7.83;4.90;;;11.80;96.30;;;;;;4975053;28;20429;-80
2022/09/21 16:52:22;;;;;;;8.53;6.60;;;11.70;96.30;;;;;;4975756;28;20968;-80
2022/09/21 16:54:49;;;;;;;36.30;30.77;;;11.50;96.30;;;;;;4962579;28;20508;-80
2022/09/21 16:57:16;;;;;;;19.17;13.63;;;11.40;96.30;;;;;;4949316;28;20434;-81
2022/09/21 16:59:41;;;;;;;16.67;13.50;;;11.40;96.30;;;;;;4937851;28;20430;-81
2022/09/21 17:02:11;;;;;;;14.70;13.20;;;11.20;96.30;;;;;;4940413;29;20435;-81
2022/09/21 17:04:36;;;;;;;9.10;7.90;;;11.10;96.30;;;;;;4957425;28;20651;-81
2022/09/21 17:07:03;;;;;;;4.83;4.33;;;11.00;96.30;;;;;;4957504;28;20422;-82
2022/09/21 17:09:34;;;;;;;5.57;4.97;;;11.00;96.30;;;;;;4956533;28;20186;-81
2022/09/21 17:12:01;;;;;;;2.60;2.40;;;10.80;96.30;;;;;;4946276;28;20498;-81
2022/09/21 17:14:33;;;;;;;4.00;3.10;;;10.60;96.30;;;;;;4956950;29;20470;-82
2022/09/21 17:17:07;;;;;;;7.33;3.47;;;10.40;96.30;;;;;;4956755;29;20759;-82
2022/09/21 17:19:33;;;;;;;3.80;3.20;;;10.20;96.30;;;;;;4957332;28;20399;-81
2022/09/21 17:21:59;;;;;;;4.47;4.07;;;10.10;96.30;;;;;;4956013;29;20446;-82
2022/09/21 17:24:25;;;;;;;3.53;2.63;;;10.00;96.30;;;;;;4957447;28;20415;-82
2022/09/21 17:26:50;;;;;;;3.63;2.50;;;9.80;96.30;;;;;;4957320;28;20198;-82
2022/09/21 17:29:26;;;;;;;2.40;2.20;;;9.70;96.30;;;;;;4955522;29;20438;-81
2022/09/21 17:31:55;;;;;;;4.83;1.87;;;9.50;96.30;;;;;;4936835;29;20207;-82
2022/09/21 17:34:26;;;;;;;2.30;1.50;;;9.30;96.30;;;;;;4939798;29;20522;-82
2022/09/21 17:36:53;;;;;;;2.57;1.57;;;9.10;96.30;;;;;;4947184;28;20417;-78
2022/09/21 17:39:20;;;;;;;5.00;1.77;;;8.90;96.30;;;;;;4969297;28;20922;-78
2022/09/21 17:55:08;;;;;;;2.93;1.90;;;8.10;96.30;;;;;;4998374;28;20483;-79
2022/09/21 17:58:01;;;;;;;9.90;6.87;;;8.10;96.30;;;;;;5009471;28;20538;-79
2022/09/21 18:00:41;;;;;;;3.20;2.43;;;8.20;96.30;;;;;;4996690;28;20428;-79
2022/09/21 18:03:28;;;;;;;9.67;4.10;;;8.30;96.30;;;;;;4990138;28;20427;-79
2022/09/21 18:05:59;;;;;;;3.43;3.13;;;8.30;96.30;;;;;;4993795;28;20428;-79
2022/09/21 18:08:29;;;;;;;4.40;2.70;;;8.40;96.30;;;;;;4982444;28;20426;-79
2022/09/21 18:11:01;;;;;;;5.83;2.37;;;8.40;96.30;;;;;;4975580;28;20806;-79
2022/09/21 18:14:04;;;;;;;4.67;3.40;;;8.40;96.30;;;;;;4975053;28;20417;-79
2022/09/21 18:17:04;;;;;;;9.10;5.80;;;8.40;96.30;;;;;;4975171;28;20508;-78
2022/09/21 18:20:07;;;;;;;7.20;5.27;;;8.40;96.30;;;;;;4973773;28;20422;-79
2022/09/21 18:22:48;;;;;;;5.13;4.30;;;8.30;96.30;;;;;;4974830;28;20425;-79
2022/09/21 18:25:18;;;;;;;4.07;3.60;;;8.20;96.30;;;;;;4975126;28;20448;-79
2022/09/21 18:27:47;;;;;;;5.83;4.00;;;8.10;96.30;;;;;;4974781;28;20489;-79
2022/09/21 18:30:14;;;;;;;3.70;3.30;;;8.00;96.30;;;;;;4973438;28;20413;-79
2022/09/21 18:32:57;;;;;;;6.63;2.87;;;8.00;96.30;;;;;;4973636;28;20406;-79
2022/09/21 18:35:51;;;;;;;5.03;2.50;;;7.90;96.30;;;;;;4973396;28;20520;-79
2022/09/21 18:38:28;;;;;;;5.40;2.20;;;7.70;96.30;;;;;;4974627;28;20406;-79
2022/09/21 18:41:33;;;;;;;4.03;1.93;;;7.60;96.30;;;;;;4984569;28;20526;-79
2022/09/21 18:44:30;;;;;;;2.10;1.90;;;7.40;96.30;;;;;;5013776;28;20440;-79
2022/09/21 18:47:18;;;;;;;2.50;2.07;;;7.30;96.30;;;;;;5013635;28;20408;-79
2022/09/21 18:49:54;;;;;;;5.57;2.07;;;7.10;96.30;;;;;;5012282;28;20426;-80
2022/09/21 18:52:27;;;;;;;3.70;2.03;;;7.00;96.30;;;;;;5013537;28;20490;-80
2022/09/21 18:54:53;;;;;;;4.93;2.07;;;6.90;96.30;;;;;;5013488;28;20447;-80
2022/09/21 18:57:19;;;;;;;5.70;2.87;;;6.80;96.30;;;;;;5013806;28;20419;-80
2022/09/21 18:59:45;;;;;;;2.80;2.03;;;6.80;96.30;;;;;;5013330;28;20179;-80
2022/09/21 19:02:14;;;;;;;5.30;1.50;;;6.90;96.30;;;;;;5013609;28;20434;-80
2022/09/21 19:04:41;;;;;;;3.07;1.80;;;7.00;96.30;;;;;;5013651;28;20188;-80
2022/09/21 19:07:17;;;;;;;2.00;1.80;;;7.00;96.30;;;;;;5013504;28;20411;-80
2022/09/21 19:09:55;;;;;;;9.53;2.80;;;7.00;96.30;;;;;;5003206;28;20424;-80
2022/09/21 19:12:39;;;;;;;3.13;2.80;;;6.90;96.30;;;;;;4993625;28;20455;-80
2022/09/21 19:15:29;;;;;;;2.03;1.83;;;6.80;96.30;;;;;;4993815;28;20932;-80
2022/09/21 19:18:03;;;;;;;3.23;2.00;;;6.60;96.30;;;;;;4992378;28;20551;-80
2022/09/21 19:20:55;;;;;;;3.33;2.93;;;6.50;96.30;;;;;;4992272;28;20419;-80
2022/09/21 19:23:38;;;;;;;3.83;3.10;;;6.40;96.30;;;;;;4992601;28;20420;-80
2022/09/21 19:26:19;;;;;;;5.30;3.27;;;6.40;96.30;;;;;;4992358;28;20428;-80
2022/09/21 19:29:02;;;;;;;5.13;3.80;;;6.50;96.30;;;;;;4994274;28;20463;-80
2022/09/21 19:31:28;;;;;;;69.30;5.20;;;6.50;96.30;;;;;;4992472;28;20432;-80
2022/09/21 19:33:53;;;;;;;27.43;5.20;;;6.60;96.30;;;;;;4993743;28;20507;-80
2022/09/21 19:36:19;;;;;;;51.60;6.30;;;6.60;96.30;;;;;;4993458;28;21150;-80
2022/09/21 19:38:45;;;;;;;44.33;7.13;;;6.50;96.30;;;;;;4993183;28;20173;-80
2022/09/21 19:41:47;;;;;;;13.07;5.73;;;6.40;96.30;;;;;;4999085;28;20201;-80
2022/09/21 19:44:33;;;;;;;7.40;6.60;;;6.20;96.30;;;;;;5014563;28;20161;-79
2022/09/21 19:47:11;;;;;;;27.07;14.30;;;6.00;96.30;;;;;;5015046;28;20423;-79
2022/09/21 19:49:54;;;;;;;23.33;16.57;;;6.00;96.30;;;;;;5013837;28;20416;-78
2022/09/21 19:52:30;;;;;;;64.83;41.00;;;6.10;96.30;;;;;;5013507;28;20544;-77
2022/09/21 20:00:26;;;;;;;114.03;59.57;;;6.20;96.30;;;;;;5013834;28;20908;-77
2022/09/21 20:03:19;;;;;;;99.63;52.53;;;6.00;96.30;;;;;;5007105;28;20466;-79
2022/09/21 20:06:03;;;;;;;52.53;31.30;;;5.80;96.30;;;;;;4975084;28;20462;-77
2022/09/21 20:08:54;;;;;;;145.73;12.27;;;5.70;96.30;;;;;;4973629;28;20505;-78
2022/09/21 20:11:55;;;;;;;391.00;13.17;;;5.80;96.30;;;;;;4973939;28;20446;-78
2022/09/21 20:14:39;;;;;;;484.00;12.50;;;5.90;96.30;;;;;;4974481;28;20461;-77
2022/09/21 20:17:10;;;;;;;431.73;14.57;;;5.90;96.30;;;;;;4974117;28;20409;-77
2022/09/21 20:19:59;;;;;;;622.27;19.07;;;5.90;96.30;;;;;;4975701;28;20956;-78
2022/09/21 20:22:34;;;;;;;565.53;13.07;;;5.90;96.30;;;;;;4975576;28;20496;-78
2022/09/21 20:25:21;;;;;;;210.53;7.17;;;5.90;96.30;;;;;;4995420;28;20441;-78
2022/09/21 20:27:54;;;;;;;257.97;9.27;;;5.90;96.30;;;;;;4990904;28;20508;-78
2022/09/21 20:30:22;;;;;;;297.03;8.03;;;5.80;96.30;;;;;;4994179;28;20529;-79
2022/09/21 20:32:52;;;;;;;195.23;9.30;;;5.80;96.30;;;;;;4989104;28;20433;-80
2022/09/21 20:35:22;;;;;;;128.43;6.97;;;5.70;96.30;;;;;;4996560;28;20511;-78
2022/09/21 20:37:50;;;;;;;243.93;8.13;;;5.60;96.30;;;;;;4996768;28;20516;-81
2022/09/21 20:40:16;;;;;;;87.67;6.83;;;5.60;96.30;;;;;;4996788;28;20467;-78
2022/09/21 20:42:42;;;;;;;90.40;5.67;;;5.50;96.30;;;;;;5013419;28;20907;-78
2022/09/21 20:45:09;;;;;;;141.60;4.83;;;5.40;96.30;;;;;;5014620;28;20411;-79
2022/09/21 20:47:35;;;;;;;128.97;3.70;;;5.40;96.30;;;;;;5014506;28;20177;-78
2022/09/21 20:50:02;;;;;;;137.67;4.00;;;5.40;96.30;;;;;;4999448;28;20555;-79
2022/09/21 20:52:27;;;;;;;209.20;8.30;;;5.30;96.30;;;;;;4979014;28;20685;-78
2022/09/21 20:54:53;;;;;;;166.03;5.80;;;5.30;96.30;;;;;;4980246;28;20627;-78
2022/09/21 20:57:21;;;;;;;93.73;3.77;;;5.30;96.30;;;;;;4979879;28;20185;-78
2022/09/21 20:59:47;;;;;;;275.60;6.30;;;5.20;96.30;;;;;;4979650;28;20269;-80
2022/09/21 21:02:14;;;;;;;224.10;14.90;;;5.20;96.30;;;;;;4980024;28;20469;-78
2022/09/21 21:04:39;;;;;;;110.90;3.23;;;5.10;96.30;;;;;;4980192;28;20190;-78
2022/09/21 21:07:05;;;;;;;220.27;5.30;;;5.10;96.30;;;;;;4981232;28;20422;-78
2022/09/21 21:09:31;;;;;;;222.17;6.57;;;5.10;96.30;;;;;;4981409;28;20235;-78
2022/09/21 21:11:57;;;;;;;102.00;4.43;;;5.00;96.30;;;;;;4980916;28;20469;-78
2022/09/21 21:14:24;;;;;;;364.13;8.10;;;5.00;96.30;;;;;;4980660;28;20515;-79
2022/09/21 21:16:50;;;;;;;254.43;5.30;;;5.00;96.30;;;;;;4980687;28;20432;-80
2022/09/21 21:19:16;;;;;;;274.30;5.90;;;5.00;96.30;;;;;;4979363;28;20436;-79
2022/09/21 21:21:42;;;;;;;314.83;7.93;;;5.10;96.30;;;;;;4980670;28;20437;-79
2022/09/21 21:26:52;;;;;;;195.30;6.97;;;5.00;96.30;;;;;;4981488;28;20181;-78
2022/09/21 21:29:18;;;;;;;225.57;7.03;;;5.00;96.30;;;;;;4981444;28;20424;-78
2022/09/21 21:31:45;;;;;;;402.10;11.30;;;5.00;96.30;;;;;;4980406;28;20529;-80
2022/09/21 21:34:11;;;;;;;392.93;8.33;;;5.00;96.30;;;;;;4981075;28;20174;-79
2022/09/21 21:36:36;;;;;;;337.87;10.43;;;5.00;96.30;;;;;;4980468;28;20426;-80
2022/09/21 21:39:02;;;;;;;255.20;7.07;;;5.00;96.30;;;;;;4979543;28;20201;-78
2022/09/21 21:41:29;;;;;;;156.47;5.10;;;5.00;96.30;;;;;;5000245;28;20564;-79
2022/09/21 21:43:55;;;;;;;250.23;10.47;;;5.00;96.30;;;;;;5019311;28;20177;-78
2022/09/21 21:46:21;;;;;;;293.30;7.90;;;5.00;96.30;;;;;;5020705;28;20438;-81
2022/09/21 21:48:46;;;;;;;211.67;8.43;;;5.10;96.30;;;;;;5019525;28;20288;-79
2022/09/21 21:51:12;;;;;;;153.67;5.70;;;5.10;96.30;;;;;;5019549;28;21153;-78
2022/09/21 21:53:38;;;;;;;175.33;6.00;;;5.10;96.30;;;;;;5018998;28;20247;-79
2022/09/21 21:56:06;;;;;;;298.43;9.03;;;5.10;96.30;;;;;;5018907;28;20223;-78
2022/09/21 21:58:33;;;;;;;258.07;6.67;;;5.00;96.30;;;;;;5019198;28;20920;-80
2022/09/21 22:01:13;;;;;;;230.20;9.87;;;5.00;96.30;;;;;;5019767;28;20509;-79
2022/09/21 22:03:40;;;;;;;238.97;5.77;;;4.90;96.30;;;;;;5019068;28;20781;-78
2022/09/21 22:06:07;;;;;;;169.73;4.63;;;4.90;96.30;;;;;;5019296;28;20427;-80
2022/09/21 22:08:34;;;;;;;349.53;7.63;;;4.90;96.30;;;;;;5020166;28;20474;-79
2022/09/21 22:11:00;;;;;;;228.47;5.33;;;4.80;96.30;;;;;;5019199;28;20443;-78
2022/09/21 22:13:28;;;;;;;282.40;7.77;;;4.90;96.30;;;;;;5020021;28;21003;-78
2022/09/21 22:15:54;;;;;;;112.93;5.33;;;4.90;96.30;;;;;;5019701;28;20197;-80
2022/09/21 22:18:19;;;;;;;162.80;4.87;;;4.90;96.30;;;;;;5018220;28;20420;-78
2022/09/21 22:20:45;;;;;;;224.57;12.23;;;4.80;96.30;;;;;;5019121;28;20471;-78
2022/09/21 22:23:12;;;;;;;190.23;5.37;;;4.80;96.30;;;;;;5018377;28;20212;-79
2022/09/21 22:25:39;;;;;;;372.10;10.07;;;4.80;96.30;;;;;;5018021;28;20180;-79
2022/09/21 22:28:05;;;;;;;267.03;7.60;;;4.90;96.30;;;;;;5016859;28;20427;-80
2022/09/21 22:30:31;;;;;;;266.47;7.70;;;4.90;96.30;;;;;;5017688;28;20515;-79
2022/09/21 22:32:56;;;;;;;240.13;6.93;;;4.90;96.30;;;;;;5017519;28;20439;-80
2022/09/21 22:35:22;;;;;;;357.87;8.77;;;4.90;96.30;;;;;;5017903;28;20588;-79
2022/09/21 22:37:51;;;;;;;237.90;7.70;;;4.90;96.30;;;;;;5019460;28;20176;-82
2022/09/21 22:40:18;;;;;;;348.60;8.97;;;4.80;96.30;;;;;;5018477;28;20169;-80
2022/09/21 22:42:45;;;;;;;288.60;7.70;;;4.70;96.30;;;;;;4998696;28;20443;-78
2022/09/21 22:45:10;;;;;;;312.90;9.97;;;4.70;96.30;;;;;;4998397;28;20459;-78
2022/09/21 22:47:36;;;;;;;228.03;6.97;;;4.60;96.30;;;;;;4998263;28;20944;-78
2022/09/21 22:50:01;;;;;;;227.27;6.93;;;4.60;96.30;;;;;;4999478;28;20182;-79
2022/09/21 22:52:27;;;;;;;65.63;3.30;;;4.50;96.30;;;;;;4998117;28;20217;-80
2022/09/21 22:54:52;;;;;;;252.33;6.37;;;4.50;96.30;;;;;;4998515;28;20216;-78